createdAt,value
2018-03-01T00:02:10.666Z,101659.45
2018-03-01T00:04:43.278Z,101665.44
2018-03-01T00:07:15.802Z,101666.28
2018-03-01T00:09:48.367Z,101660.25
2018-03-01T00:12:20.888Z,101649.44
2018-03-01T00:14:53.446Z,101655.86
2018-03-01T00:17:25.967Z,101647.83
2018-03-01T00:19:58.503Z,101646.13
2018-03-01T00:22:36.886Z,101645.03
2018-03-01T00:25:09.397Z,101638.78
2018-03-01T00:27:41.912Z,101636.93
2018-03-01T00:30:14.521Z,101635.09
2018-03-01T00:32:47.040Z,101626.65
2018-03-01T00:35:19.593Z,101621.06
2018-03-01T00:37:52.108Z,101628.42
2018-03-01T00:40:24.682Z,101634.94
2018-03-01T00:42:57.226Z,101627.38
2018-03-01T00:45:29.768Z,101627.03
2018-03-01T00:48:02.289Z,101629.41
2018-03-01T00:50:34.808Z,101625.81
2018-03-01T00:53:07.335Z,101622.23
2018-03-01T00:55:39.893Z,101612.14
2018-03-01T00:58:12.409Z,101614.63
2018-03-01T01:00:44.947Z,101609.23
2018-03-01T01:03:17.482Z,101602.39
2018-03-01T01:05:50.037Z,101601.72
2018-03-01T01:08:22.547Z,101593.98
2018-03-01T01:10:55.071Z,101593.00
2018-03-01T01:13:27.587Z,101594.69
2018-03-01T01:16:00.150Z,101588.38
2018-03-01T01:18:32.665Z,101582.86
2018-03-01T01:21:05.196Z,101579.70
2018-03-01T01:23:37.722Z,101573.19
2018-03-01T01:26:10.275Z,101571.47
2018-03-01T01:28:42.781Z,101570.84
2018-03-01T01:31:15.377Z,101565.33
2018-03-01T01:33:48.006Z,101563.66
2018-03-01T01:36:20.557Z,101559.39
2018-03-01T01:38:53.096Z,101550.98
2018-03-01T01:41:25.633Z,101545.55
2018-03-01T01:43:58.131Z,101535.45
2018-03-01T01:46:30.681Z,101533.66
2018-03-01T01:49:03.204Z,101526.87
2018-03-01T01:51:35.749Z,101525.52
2018-03-01T01:54:08.302Z,101526.78
2018-03-01T01:56:40.842Z,101516.05
2018-03-01T01:59:13.355Z,101519.16
2018-03-01T02:01:45.874Z,101512.89
2018-03-01T02:04:18.415Z,101504.22
2018-03-01T02:06:51.001Z,101506.50
2018-03-01T02:09:23.506Z,101511.78
2018-03-01T02:11:56.035Z,101505.59
2018-03-01T02:14:28.544Z,101515.11
2018-03-01T02:17:01.085Z,101506.02
2018-03-01T02:19:33.609Z,101500.33
2018-03-01T02:22:06.164Z,101496.89
2018-03-01T02:24:38.820Z,101495.43
2018-03-01T02:27:11.356Z,101493.39
2018-03-01T02:29:43.902Z,101498.56
2018-03-01T02:32:16.453Z,101491.64
2018-03-01T02:34:48.976Z,101496.17
2018-03-01T02:37:21.501Z,101493.47
2018-03-01T02:39:54.069Z,101493.45
2018-03-01T02:42:26.602Z,101482.78
2018-03-01T02:44:59.109Z,101495.42
2018-03-01T02:47:31.656Z,101496.73
2018-03-01T02:50:04.163Z,101501.50
2018-03-01T02:52:36.701Z,101495.78
2018-03-01T02:55:09.213Z,101490.84
2018-03-01T02:57:41.745Z,101487.73
2018-03-01T03:00:14.250Z,101485.73
2018-03-01T03:02:46.795Z,101486.25
2018-03-01T03:05:19.319Z,101483.69
2018-03-01T03:07:51.853Z,101491.42
2018-03-01T03:10:24.367Z,101488.16
2018-03-01T03:12:56.894Z,101484.70
2018-03-01T03:15:29.425Z,101479.61
2018-03-01T03:18:01.950Z,101474.44
2018-03-01T03:20:34.485Z,101480.89
2018-03-01T03:23:08.017Z,101478.86
2018-03-01T03:25:40.529Z,101481.77
2018-03-01T03:28:13.062Z,101472.81
2018-03-01T03:30:45.568Z,101473.14
2018-03-01T03:33:18.086Z,101463.47
2018-03-01T03:35:50.627Z,101467.27
2018-03-01T03:38:23.163Z,101469.11
2018-03-01T03:40:55.689Z,101453.84
2018-03-01T03:43:28.199Z,101447.64
2018-03-01T03:46:00.757Z,101433.83
2018-03-01T03:48:33.298Z,101442.06
2018-03-01T03:51:05.842Z,101446.73
2018-03-01T03:53:38.383Z,101439.03
2018-03-01T03:56:10.916Z,101435.68
2018-03-01T03:58:43.754Z,101433.34
2018-03-01T04:01:16.284Z,101431.05
2018-03-01T04:03:48.805Z,101418.53
2018-03-01T04:06:21.348Z,101423.75
2018-03-01T04:08:53.891Z,101424.55
2018-03-01T04:11:26.423Z,101417.86
2018-03-01T04:13:59.024Z,101416.55
2018-03-01T04:16:37.819Z,101412.87
2018-03-01T04:19:10.331Z,101405.12
2018-03-01T04:21:43.793Z,101399.77
2018-03-01T04:24:16.310Z,101393.20
2018-03-01T04:26:48.848Z,101388.48
2018-03-01T04:29:21.414Z,101389.12
2018-03-01T04:31:53.948Z,101383.03
2018-03-01T04:34:26.473Z,101374.75
2018-03-01T04:36:59.017Z,101373.91
2018-03-01T04:39:31.524Z,101380.02
2018-03-01T04:42:04.069Z,101369.84
2018-03-01T04:44:37.052Z,101364.28
2018-03-01T04:47:09.632Z,101367.90
2018-03-01T04:49:42.141Z,101356.84
2018-03-01T04:52:14.698Z,101345.86
2018-03-01T04:54:47.213Z,101344.10
2018-03-01T04:57:19.743Z,101343.58
2018-03-01T04:59:53.378Z,101339.48
2018-03-01T05:02:25.897Z,101333.66
2018-03-01T05:04:58.407Z,101324.58
2018-03-01T05:07:30.956Z,101326.57
2018-03-01T05:10:03.494Z,101319.53
2018-03-01T05:12:36.056Z,101319.48
2018-03-01T05:15:08.572Z,101318.80
2018-03-01T05:17:41.104Z,101327.38
2018-03-01T05:20:13.620Z,101317.61
2018-03-01T05:22:46.156Z,101314.84
2018-03-01T05:25:18.681Z,101310.85
2018-03-01T05:27:51.226Z,101319.91
2018-03-01T05:30:23.744Z,101320.59
2018-03-01T05:32:56.309Z,101312.51
2018-03-01T05:35:28.827Z,101316.95
2018-03-01T05:38:01.351Z,101305.59
2018-03-01T05:40:33.883Z,101313.97
2018-03-01T05:43:06.417Z,101315.98
2018-03-01T05:45:38.948Z,101316.98
2018-03-01T05:48:11.474Z,101320.70
2018-03-01T05:50:43.988Z,101319.05
2018-03-01T05:53:16.529Z,101306.81
2018-03-01T05:55:49.049Z,101288.28
2018-03-01T05:58:21.606Z,101294.49
2018-03-01T06:00:54.124Z,101294.53
2018-03-01T06:03:26.651Z,101295.19
2018-03-01T06:05:59.187Z,101300.48
2018-03-01T06:08:31.704Z,101292.73
2018-03-01T06:11:04.202Z,101298.69
2018-03-01T06:13:36.724Z,101296.77
2018-03-01T06:16:09.236Z,101295.07
2018-03-01T06:18:41.751Z,101300.23
2018-03-01T06:21:14.280Z,101300.33
2018-03-01T06:23:46.817Z,101302.02
2018-03-01T06:26:19.334Z,101293.39
2018-03-01T06:28:51.879Z,101294.82
2018-03-01T06:31:24.392Z,101290.33
2018-03-01T06:33:56.917Z,101296.17
2018-03-01T06:36:29.426Z,101293.06
2018-03-01T06:39:01.964Z,101294.13
2018-03-01T06:41:39.591Z,101290.51
2018-03-01T06:44:12.152Z,101293.91
2018-03-01T06:46:44.689Z,101285.69
2018-03-01T06:49:17.233Z,101275.73
2018-03-01T06:51:49.794Z,101267.36
2018-03-01T06:54:22.344Z,101262.02
2018-03-01T06:56:54.869Z,101263.73
2018-03-01T06:59:27.396Z,101267.64
2018-03-01T07:02:00.004Z,101258.78
2018-03-01T07:04:32.505Z,101272.16
2018-03-01T07:07:05.027Z,101267.37
2018-03-01T07:09:37.556Z,101256.83
2018-03-01T07:12:10.095Z,101259.53
2018-03-01T07:14:42.629Z,101259.86
2018-03-01T07:17:15.224Z,101249.75
2018-03-01T07:19:47.741Z,101247.06
2018-03-01T07:22:20.262Z,101238.14
2018-03-01T07:24:52.783Z,101249.05
2018-03-01T07:27:25.291Z,101254.75
2018-03-01T07:29:57.796Z,101251.08
2018-03-01T07:32:30.339Z,101252.70
2018-03-01T07:35:02.841Z,101247.84
2018-03-01T07:37:35.376Z,101246.39
2018-03-01T07:40:07.923Z,101257.81
2018-03-01T07:42:40.437Z,101248.38
2018-03-01T07:45:12.952Z,101246.38
2018-03-01T07:47:45.495Z,101239.33
2018-03-01T07:50:18.005Z,101244.28
2018-03-01T07:52:50.541Z,101248.31
2018-03-01T07:55:23.102Z,101229.11
2018-03-01T07:57:55.652Z,101232.22
2018-03-01T08:00:28.248Z,101234.15
2018-03-01T08:03:03.096Z,101226.89
2018-03-01T08:05:35.865Z,101226.30
2018-03-01T08:08:08.421Z,101231.16
2018-03-01T08:10:40.937Z,101231.52
2018-03-01T08:13:13.466Z,101226.03
2018-03-01T08:15:45.992Z,101227.64
2018-03-01T08:18:18.541Z,101225.69
2018-03-01T08:20:51.045Z,101221.00
2018-03-01T08:23:23.593Z,101214.17
2018-03-01T08:25:56.111Z,101210.19
2018-03-01T08:28:28.640Z,101206.49
2018-03-01T08:31:01.148Z,101208.18
2018-03-01T08:33:34.100Z,101202.37
2018-03-01T08:36:07.960Z,101211.42
2018-03-01T08:38:40.491Z,101198.78
2018-03-01T08:41:13.039Z,101186.21
2018-03-01T08:43:45.606Z,101188.73
2018-03-01T08:46:18.148Z,101193.60
2018-03-01T08:48:50.680Z,101180.77
2018-03-01T08:51:23.193Z,101173.83
2018-03-01T08:53:55.710Z,101184.29
2018-03-01T08:56:28.210Z,101179.34
2018-03-01T08:59:00.758Z,101179.86
2018-03-01T09:01:33.264Z,101182.02
2018-03-01T09:04:05.796Z,101173.59
2018-03-01T09:06:38.296Z,101176.78
2018-03-01T09:09:10.815Z,101168.30
2018-03-01T09:11:43.308Z,101170.94
2018-03-01T09:14:15.825Z,101182.31
2018-03-01T09:16:48.330Z,101175.27
2018-03-01T09:19:20.866Z,101175.55
2018-03-01T09:21:53.367Z,101164.95
2018-03-01T09:24:25.900Z,101156.91
2018-03-01T09:26:58.422Z,101169.98
2018-03-01T09:29:30.941Z,101161.90
2018-03-01T09:32:03.435Z,101165.56
2018-03-01T09:34:35.957Z,101164.70
2018-03-01T09:37:08.478Z,101166.27
2018-03-01T09:39:40.991Z,101173.30
2018-03-01T09:42:13.502Z,101150.33
2018-03-01T09:44:46.018Z,101154.23
2018-03-01T09:47:18.535Z,101160.52
2018-03-01T09:49:51.105Z,101147.30
2018-03-01T09:52:23.613Z,101145.95
2018-03-01T09:54:56.148Z,101146.95
2018-03-01T09:57:28.664Z,101139.55
2018-03-01T10:00:01.186Z,101124.11
2018-03-01T10:02:33.685Z,101129.37
2018-03-01T10:05:07.229Z,101126.92
2018-03-01T10:07:39.700Z,101137.78
2018-03-01T10:10:12.223Z,101149.41
2018-03-01T10:12:44.742Z,101144.56
2018-03-01T10:15:18.550Z,101138.63
2018-03-01T10:17:51.045Z,101130.40
2018-03-01T10:20:23.551Z,101118.27
2018-03-01T10:22:56.079Z,101125.66
2018-03-01T10:25:28.597Z,101122.80
2018-03-01T10:28:01.109Z,101122.92
2018-03-01T10:30:33.632Z,101128.00
2018-03-01T10:33:07.043Z,101113.48
2018-03-01T10:35:39.580Z,101100.44
2018-03-01T10:38:12.121Z,101082.84
2018-03-01T10:40:44.645Z,101070.49
2018-03-01T10:43:17.167Z,101065.86
2018-03-01T10:45:49.667Z,101072.82
2018-03-01T10:48:22.184Z,101079.14
2018-03-01T10:50:54.687Z,101087.38
2018-03-01T10:53:27.200Z,101077.13
2018-03-01T10:55:59.691Z,101073.94
2018-03-01T10:58:32.233Z,101069.19
2018-03-01T11:01:19.442Z,101074.16
2018-03-01T11:03:51.962Z,101057.64
2018-03-01T11:06:24.478Z,101059.53
2018-03-01T11:08:56.999Z,101058.80
2018-03-01T11:11:29.534Z,101036.78
2018-03-01T11:14:02.042Z,101040.48
2018-03-01T11:16:34.556Z,101022.66
2018-03-01T11:19:07.078Z,101010.62
2018-03-01T11:21:39.630Z,101007.72
2018-03-01T11:24:12.230Z,100998.28
2018-03-01T11:26:44.740Z,101010.09
2018-03-01T11:29:17.256Z,100992.23
2018-03-01T11:31:49.777Z,100994.52
2018-03-01T11:34:22.323Z,100989.45
2018-03-01T11:36:54.839Z,100980.48
2018-03-01T11:39:27.352Z,100998.02
2018-03-01T11:41:59.946Z,100988.25
2018-03-01T11:44:32.464Z,100982.00
2018-03-01T11:47:04.985Z,100970.26
2018-03-01T11:49:37.520Z,100968.11
2018-03-01T11:52:10.014Z,100969.72
2018-03-01T11:54:42.536Z,100952.83
2018-03-01T11:57:15.047Z,100952.95
2018-03-01T11:59:47.567Z,100943.88
2018-03-01T12:02:20.064Z,100941.33
2018-03-01T12:04:52.638Z,100939.23
2018-03-01T12:07:25.147Z,100935.23
2018-03-01T12:09:57.680Z,100931.42
2018-03-01T12:12:30.181Z,100924.34
2018-03-01T12:15:02.717Z,100916.20
2018-03-01T12:17:35.205Z,100910.98
2018-03-01T12:20:07.749Z,100910.84
2018-03-01T12:22:40.244Z,100902.91
2018-03-01T12:25:12.766Z,100904.52
2018-03-01T12:27:45.267Z,100890.13
2018-03-01T12:30:17.788Z,100876.81
2018-03-01T12:32:50.286Z,100882.91
2018-03-01T12:35:22.821Z,100880.72
2018-03-01T12:37:55.317Z,100881.63
2018-03-01T12:40:27.828Z,100877.66
2018-03-01T12:43:00.337Z,100870.70
2018-03-01T12:45:32.867Z,100867.50
2018-03-01T12:48:05.363Z,100859.11
2018-03-01T12:50:37.888Z,100849.04
2018-03-01T12:53:10.381Z,100845.05
2018-03-01T12:55:42.922Z,100836.06
2018-03-01T12:58:15.436Z,100830.47
2018-03-01T13:00:48.079Z,100836.25
2018-03-01T13:03:20.546Z,100832.91
2018-03-01T13:05:53.057Z,100826.16
2018-03-01T13:08:25.564Z,100829.46
2018-03-01T13:10:58.099Z,100819.47
2018-03-01T13:13:30.606Z,100832.30
2018-03-01T13:16:03.261Z,100821.60
2018-03-01T13:18:35.760Z,100815.30
2018-03-01T13:21:08.280Z,100803.98
2018-03-01T13:23:40.776Z,100817.38
2018-03-01T13:26:13.303Z,100828.26
2018-03-01T13:28:45.801Z,100809.41
2018-03-01T13:31:19.713Z,100806.08
2018-03-01T13:33:58.843Z,100805.16
2018-03-01T13:36:31.360Z,100797.55
2018-03-01T13:39:03.864Z,100792.59
2018-03-01T13:41:36.381Z,100793.48
2018-03-01T13:44:08.889Z,100788.55
2018-03-01T13:46:41.775Z,100800.66
2018-03-01T13:49:14.280Z,100811.55
2018-03-01T13:51:47.755Z,100802.33
2018-03-01T13:54:20.258Z,100793.62
2018-03-01T13:56:52.780Z,100793.32
2018-03-01T13:59:25.281Z,100777.33
2018-03-01T14:01:57.830Z,100776.45
2018-03-01T14:04:30.333Z,100777.62
2018-03-01T14:07:08.636Z,100772.87
2018-03-01T14:09:41.165Z,100772.16
2018-03-01T14:12:14.574Z,100785.44
2018-03-01T14:14:47.106Z,100772.25
2018-03-01T14:17:21.408Z,100771.28
2018-03-01T14:20:08.795Z,100770.45
2018-03-01T14:23:01.029Z,100769.59
2018-03-01T14:25:33.910Z,100773.17
2018-03-01T14:28:08.239Z,100758.95
2018-03-01T14:30:40.753Z,100760.21
2018-03-01T14:33:13.253Z,100749.83
2018-03-01T14:35:45.777Z,100738.58
2018-03-01T14:38:18.333Z,100749.51
2018-03-01T14:40:50.852Z,100742.83
2018-03-01T14:43:23.341Z,100745.19
2018-03-01T14:45:55.868Z,100729.76
2018-03-01T14:48:28.384Z,100729.45
2018-03-01T14:51:00.915Z,100733.94
2018-03-01T14:53:33.409Z,100725.18
2018-03-01T14:56:05.945Z,100732.05
2018-03-01T14:58:38.464Z,100723.05
2018-03-01T15:01:10.987Z,100709.27
2018-03-01T15:03:43.508Z,100707.83
2018-03-01T15:06:16.038Z,100709.19
2018-03-01T15:08:48.537Z,100697.26
2018-03-01T15:11:21.102Z,100696.66
2018-03-01T15:13:53.613Z,100686.11
2018-03-01T15:16:26.129Z,100685.87
2018-03-01T15:18:58.685Z,100681.63
2018-03-01T15:21:31.213Z,100671.63
2018-03-01T15:24:03.721Z,100671.34
2018-03-01T15:26:36.256Z,100662.55
2018-03-01T15:29:08.845Z,100658.86
2018-03-01T15:31:41.372Z,100649.55
2018-03-01T15:34:13.883Z,100654.97
2018-03-01T15:36:46.409Z,100658.08
2018-03-01T15:39:18.918Z,100649.89
2018-03-01T15:41:51.446Z,100644.98
2018-03-01T15:44:23.950Z,100642.98
2018-03-01T15:46:56.486Z,100633.42
2018-03-01T15:49:29.112Z,100630.24
2018-03-01T15:52:01.575Z,100631.88
2018-03-01T15:54:34.088Z,100640.61
2018-03-01T15:57:06.623Z,100640.41
2018-03-01T15:59:39.153Z,100644.13
2018-03-01T16:02:11.689Z,100638.41
2018-03-01T16:04:44.191Z,100646.95
2018-03-01T16:07:17.299Z,100647.03
2018-03-01T16:09:49.872Z,100652.02
2018-03-01T16:12:22.395Z,100641.47
2018-03-01T16:14:54.914Z,100639.00
2018-03-01T16:17:27.452Z,100630.27
2018-03-01T16:20:00.254Z,100625.97
2018-03-01T16:22:32.812Z,100632.77
2018-03-01T16:25:05.376Z,100641.08
2018-03-01T16:27:38.008Z,100632.34
2018-03-01T16:30:10.643Z,100629.36
2018-03-01T16:32:43.460Z,100629.38
2018-03-01T16:35:16.453Z,100621.97
2018-03-01T16:37:49.418Z,100626.54
2018-03-01T16:40:22.326Z,100627.84
2018-03-01T16:42:54.987Z,100630.06
2018-03-01T16:45:27.520Z,100615.73
2018-03-01T16:48:00.168Z,100630.75
2018-03-01T16:50:32.664Z,100621.88
2018-03-01T16:53:05.191Z,100625.95
2018-03-01T16:55:37.678Z,100610.86
2018-03-01T16:58:10.201Z,100618.23
2018-03-01T17:00:42.743Z,100615.97
2018-03-01T17:03:15.257Z,100617.19
2018-03-01T17:05:47.792Z,100626.53
2018-03-01T17:08:21.232Z,100621.55
2018-03-01T17:10:53.759Z,100623.53
2018-03-01T17:13:26.301Z,100621.80
2018-03-01T17:15:58.838Z,100619.91
2018-03-01T17:18:31.366Z,100620.09
2018-03-01T17:21:03.955Z,100627.98
2018-03-01T17:23:36.510Z,100631.22
2018-03-01T17:26:09.107Z,100638.27
2018-03-01T17:28:41.615Z,100651.47
2018-03-01T17:31:14.309Z,100629.16
2018-03-01T17:33:46.833Z,100633.73
2018-03-01T17:36:19.456Z,100639.91
2018-03-01T17:38:52.073Z,100633.01
2018-03-01T17:41:24.620Z,100624.48
2018-03-01T17:43:57.138Z,100635.48
2018-03-01T17:46:29.659Z,100629.54
2018-03-01T17:49:02.165Z,100626.91
2018-03-01T17:51:34.780Z,100633.21
2018-03-01T17:54:07.303Z,100619.45
2018-03-01T17:56:39.825Z,100615.69
2018-03-01T17:59:12.334Z,100611.84
2018-03-01T18:01:44.869Z,100609.70
2018-03-01T18:04:17.382Z,100603.31
2018-03-01T18:06:49.903Z,100603.34
2018-03-01T18:09:22.395Z,100602.03
2018-03-01T18:11:54.949Z,100601.62
2018-03-01T18:14:27.460Z,100602.61
2018-03-01T18:17:00.077Z,100599.22
2018-03-01T18:19:32.606Z,100607.17
2018-03-01T18:22:05.144Z,100601.61
2018-03-01T18:24:37.778Z,100601.45
2018-03-01T18:27:10.333Z,100599.84
2018-03-01T18:29:42.844Z,100601.02
2018-03-01T18:32:16.417Z,100593.56
2018-03-01T18:34:48.933Z,100598.84
2018-03-01T18:37:24.862Z,100599.83
2018-03-01T18:39:58.008Z,100592.56
2018-03-01T18:42:30.705Z,100600.02
2018-03-01T18:45:03.222Z,100590.17
2018-03-01T18:47:40.896Z,100597.06
2018-03-01T18:50:16.317Z,100607.05
2018-03-01T18:52:48.858Z,100598.89
2018-03-01T18:55:26.390Z,100587.15
2018-03-01T18:58:00.045Z,100582.91
2018-03-01T19:00:32.564Z,100575.16
2018-03-01T19:03:05.104Z,100582.47
2018-03-01T19:05:37.620Z,100589.80
2018-03-01T19:08:10.155Z,100587.59
2018-03-01T19:10:42.657Z,100585.84
2018-03-01T19:13:15.265Z,100588.13
2018-03-01T19:15:47.745Z,100580.78
2018-03-01T19:18:20.315Z,100593.28
2018-03-01T19:20:52.939Z,100582.89
2018-03-01T19:23:25.479Z,100587.27
2018-03-01T19:25:58.080Z,100587.31
2018-03-01T19:28:30.607Z,100595.73
2018-03-01T19:31:03.224Z,100589.09
2018-03-01T19:33:35.777Z,100584.23
2018-03-01T19:36:08.314Z,100577.92
2018-03-01T19:38:41.710Z,100581.69
2018-03-01T19:41:14.456Z,100581.00
2018-03-01T19:43:47.022Z,100579.18
2018-03-01T19:46:19.527Z,100581.36
2018-03-01T19:48:52.061Z,100580.38
2018-03-01T19:51:24.562Z,100581.88
2018-03-01T19:53:57.106Z,100580.46
2018-03-01T19:56:29.604Z,100578.17
2018-03-01T19:59:02.188Z,100575.11
2018-03-01T20:01:34.682Z,100580.63
2018-03-01T20:04:07.222Z,100572.47
2018-03-01T20:06:39.728Z,100571.94
2018-03-01T20:09:12.257Z,100573.53
2018-03-01T20:11:44.758Z,100573.95
2018-03-01T20:14:17.575Z,100568.63
2018-03-01T20:16:50.155Z,100562.34
2018-03-01T20:19:22.656Z,100566.55
2018-03-01T20:21:55.168Z,100568.06
2018-03-01T20:24:27.660Z,100560.20
2018-03-01T20:27:00.184Z,100566.67
2018-03-01T20:29:32.685Z,100549.31
2018-03-01T20:32:05.197Z,100560.61
2018-03-01T20:34:37.698Z,100556.45
2018-03-01T20:37:10.331Z,100562.56
2018-03-01T20:39:43.667Z,100554.72
2018-03-01T20:42:16.191Z,100555.28
2018-03-01T20:44:48.757Z,100552.25
2018-03-01T20:47:21.301Z,100546.72
2018-03-01T20:49:53.797Z,100552.19
2018-03-01T20:52:26.321Z,100540.30
2018-03-01T20:54:58.881Z,100549.95
2018-03-01T20:57:31.408Z,100543.95
2018-03-01T21:00:03.906Z,100544.85
2018-03-01T21:02:36.446Z,100533.72
2018-03-01T21:05:08.945Z,100544.16
2018-03-01T21:07:41.482Z,100531.00
2018-03-01T21:10:13.988Z,100532.17
2018-03-01T21:12:46.506Z,100535.44
2018-03-01T21:15:19.110Z,100523.69
2018-03-01T21:17:51.837Z,100521.73
2018-03-01T21:20:26.482Z,100522.90
2018-03-01T21:22:59.078Z,100517.55
2018-03-01T21:25:31.782Z,100518.27
2018-03-01T21:28:04.322Z,100517.55
2018-03-01T21:30:36.867Z,100504.89
2018-03-01T21:33:09.410Z,100499.93
2018-03-01T21:35:41.937Z,100496.64
2018-03-01T21:38:14.536Z,100496.26
2018-03-01T21:40:47.042Z,100498.02
2018-03-01T21:43:19.581Z,100492.35
2018-03-01T21:45:52.085Z,100488.06
2018-03-01T21:48:24.626Z,100478.75
2018-03-01T21:50:57.144Z,100483.83
2018-03-01T21:53:29.712Z,100478.05
2018-03-01T21:56:02.207Z,100479.55
2018-03-01T21:58:34.724Z,100470.55
2018-03-01T22:01:07.227Z,100468.20
2018-03-01T22:03:39.766Z,100468.34
2018-03-01T22:06:12.281Z,100459.34
2018-03-01T22:08:44.820Z,100464.86
2018-03-01T22:11:17.361Z,100452.37
2018-03-01T22:13:49.902Z,100444.95
2018-03-01T22:16:22.412Z,100445.66
2018-03-01T22:18:54.944Z,100450.25
2018-03-01T22:21:27.481Z,100444.10
2018-03-01T22:24:00.025Z,100436.87
2018-03-01T22:26:33.904Z,100439.98
2018-03-01T22:29:06.435Z,100431.92
2018-03-01T22:31:38.939Z,100431.52
2018-03-01T22:34:11.485Z,100429.48
2018-03-01T22:36:43.988Z,100427.13
2018-03-01T22:39:16.602Z,100432.78
2018-03-01T22:41:49.192Z,100430.39
2018-03-01T22:44:21.716Z,100426.35
2018-03-01T22:46:54.302Z,100425.77
2018-03-01T22:49:26.835Z,100423.65
2018-03-01T22:51:59.341Z,100414.41
2018-03-01T22:54:31.880Z,100416.43
2018-03-01T22:57:04.400Z,100417.81
2018-03-01T22:59:36.940Z,100413.05
2018-03-01T23:02:09.456Z,100410.13
2018-03-01T23:04:41.973Z,100416.59
2018-03-01T23:07:14.516Z,100409.17
2018-03-01T23:09:47.059Z,100413.36
2018-03-01T23:12:19.568Z,100405.64
2018-03-01T23:14:52.102Z,100404.92
2018-03-01T23:17:24.612Z,100401.12
2018-03-01T23:19:57.181Z,100399.28
2018-03-01T23:22:29.672Z,100390.00
2018-03-01T23:25:02.209Z,100385.48
2018-03-01T23:27:34.719Z,100395.66
2018-03-01T23:30:08.427Z,100389.13
2018-03-01T23:32:40.948Z,100395.41
2018-03-01T23:35:13.488Z,100390.93
2018-03-01T23:37:46.013Z,100389.84
2018-03-01T23:40:18.535Z,100391.30
2018-03-01T23:42:51.042Z,100391.04
2018-03-01T23:45:23.586Z,100389.31
2018-03-01T23:47:56.170Z,100389.21
2018-03-01T23:50:28.703Z,100387.41
2018-03-01T23:53:01.209Z,100381.33
2018-03-01T23:55:33.752Z,100376.41
2018-03-01T23:58:06.259Z,100376.66
